createdAt,value
2023-08-11T00:02:09.274Z,17.15
2023-08-11T00:04:37.454Z,17.15
2023-08-11T00:07:05.654Z,17.16
2023-08-11T00:09:34.049Z,17.15
2023-08-11T00:12:04.031Z,17.13
2023-08-11T00:14:31.697Z,17.13
2023-08-11T00:16:59.880Z,17.12
2023-08-11T00:19:28.072Z,17.09
2023-08-11T00:21:57.409Z,17.07
2023-08-11T00:24:25.379Z,17.06
2023-08-11T00:26:53.337Z,17.04
2023-08-11T00:29:22.482Z,17.02
2023-08-11T00:31:50.308Z,16.97
2023-08-11T00:34:17.995Z,16.93
2023-08-11T00:36:48.331Z,16.88
2023-08-11T00:39:16.986Z,16.87
2023-08-11T00:41:44.781Z,16.86
2023-08-11T00:44:12.622Z,16.85
2023-08-11T00:46:43.394Z,16.84
2023-08-11T00:49:11.606Z,16.83
2023-08-11T00:51:39.823Z,16.83
2023-08-11T00:54:11.892Z,16.80
2023-08-11T00:56:45.495Z,16.80
2023-08-11T00:59:14.299Z,16.78
2023-08-11T01:01:42.021Z,16.76
2023-08-11T01:04:09.743Z,16.74
2023-08-11T01:07:26.131Z,16.74
2023-08-11T01:10:25.407Z,16.68
2023-08-11T01:13:17.160Z,16.67
2023-08-11T01:15:59.372Z,16.58
2023-08-11T01:18:29.583Z,16.51
2023-08-11T01:21:07.207Z,16.51
2023-08-11T01:23:38.460Z,16.50
2023-08-11T01:26:06.474Z,16.49
2023-08-11T01:28:36.030Z,16.49
2023-08-11T01:31:04.570Z,16.48
2023-08-11T01:33:32.214Z,16.47
2023-08-11T01:35:59.726Z,16.47
2023-08-11T01:38:36.045Z,16.47
2023-08-11T01:41:07.804Z,16.46
2023-08-11T01:43:38.112Z,16.45
2023-08-11T01:46:12.265Z,16.45
2023-08-11T01:48:40.656Z,16.43
2023-08-11T01:51:08.651Z,16.44
2023-08-11T01:53:37.222Z,16.44
2023-08-11T01:56:06.317Z,16.42
2023-08-11T01:58:34.116Z,16.40
2023-08-11T02:01:01.682Z,16.38
2023-08-11T02:03:29.282Z,16.38
2023-08-11T02:05:57.027Z,16.37
2023-08-11T02:08:24.555Z,16.36
2023-08-11T02:10:52.131Z,16.34
2023-08-11T02:13:20.849Z,16.32
2023-08-11T02:15:48.441Z,16.31
2023-08-11T02:18:16.143Z,16.29
2023-08-11T02:20:43.841Z,16.27
2023-08-11T02:23:11.398Z,16.26
2023-08-11T02:25:41.056Z,16.23
2023-08-11T02:28:08.509Z,16.21
2023-08-11T02:30:36.799Z,16.15
2023-08-11T02:33:04.784Z,16.11
2023-08-11T02:35:32.749Z,16.06
2023-08-11T02:38:00.545Z,16.02
2023-08-11T02:40:28.138Z,15.97
2023-08-11T02:42:59.277Z,15.95
2023-08-11T02:45:29.709Z,15.93
2023-08-11T02:47:57.669Z,15.93
2023-08-11T02:50:25.617Z,15.93
2023-08-11T02:52:53.321Z,15.93
2023-08-11T02:55:23.739Z,15.91
2023-08-11T02:57:54.503Z,15.89
2023-08-11T03:00:24.827Z,15.90
2023-08-11T03:02:52.707Z,15.89
2023-08-11T03:05:20.963Z,15.88
2023-08-11T03:08:18.753Z,15.86
2023-08-11T03:10:56.692Z,15.84
2023-08-11T03:13:30.271Z,15.81
2023-08-11T03:16:01.296Z,15.78
2023-08-11T03:18:31.330Z,15.76
2023-08-11T03:21:18.766Z,15.76
2023-08-11T03:23:50.450Z,15.73
2023-08-11T03:26:20.043Z,15.73
2023-08-11T03:28:47.902Z,15.72
2023-08-11T03:31:15.852Z,15.71
2023-08-11T03:33:48.307Z,15.70
2023-08-11T03:36:16.911Z,15.69
2023-08-11T03:38:45.997Z,15.68
2023-08-11T03:41:13.769Z,15.65
2023-08-11T03:43:41.641Z,15.64
2023-08-11T03:46:09.340Z,15.62
2023-08-11T03:48:39.180Z,15.58
2023-08-11T03:51:08.151Z,15.57
2023-08-11T03:53:37.671Z,15.57
2023-08-11T03:56:08.695Z,15.55
2023-08-11T03:58:41.083Z,15.54
2023-08-11T04:01:09.868Z,15.53
2023-08-11T04:03:40.076Z,15.52
2023-08-11T04:06:07.984Z,15.48
2023-08-11T04:08:35.649Z,15.47
2023-08-11T04:11:03.679Z,15.47
2023-08-11T04:13:34.550Z,15.45
2023-08-11T04:16:02.146Z,15.43
2023-08-11T04:18:29.904Z,15.43
2023-08-11T04:20:57.518Z,15.42
2023-08-11T04:23:27.465Z,15.41
2023-08-11T04:25:56.014Z,15.40
2023-08-11T04:28:32.947Z,15.41
2023-08-11T04:31:12.892Z,15.38
2023-08-11T04:33:41.036Z,15.37
2023-08-11T04:36:09.012Z,15.36
2023-08-11T04:38:36.995Z,15.37
2023-08-11T04:41:04.916Z,15.39
2023-08-11T04:43:38.018Z,15.38
2023-08-11T04:46:11.484Z,15.40
2023-08-11T04:48:41.885Z,15.41
2023-08-11T04:51:09.551Z,15.43
2023-08-11T04:53:38.102Z,15.45
2023-08-11T04:56:05.843Z,15.46
2023-08-11T04:58:34.982Z,15.48
2023-08-11T05:01:04.989Z,15.49
2023-08-11T05:03:33.862Z,15.51
2023-08-11T05:06:02.356Z,15.52
2023-08-11T05:08:32.242Z,15.54
2023-08-11T05:11:00.030Z,15.55
2023-08-11T05:13:27.572Z,15.56
2023-08-11T05:15:55.132Z,15.58
2023-08-11T05:18:23.441Z,15.60
2023-08-11T05:20:50.993Z,15.62
2023-08-11T05:23:20.943Z,15.64
2023-08-11T05:25:50.449Z,15.66
2023-08-11T05:28:18.044Z,15.68
2023-08-11T05:30:46.472Z,15.72
2023-08-11T05:33:14.110Z,15.78
2023-08-11T05:35:41.761Z,15.80
2023-08-11T05:38:09.482Z,15.84
2023-08-11T05:40:40.102Z,15.86
2023-08-11T05:43:08.073Z,15.91
2023-08-11T05:45:35.673Z,15.97
2023-08-11T05:48:03.721Z,16.04
2023-08-11T05:50:31.447Z,16.09
2023-08-11T05:52:59.209Z,16.16
2023-08-11T05:55:27.076Z,16.22
2023-08-11T05:57:54.712Z,16.29
2023-08-11T06:00:22.353Z,16.35
2023-08-11T06:02:49.957Z,16.43
2023-08-11T06:05:18.485Z,16.49
2023-08-11T06:07:55.862Z,16.56
2023-08-11T06:10:28.214Z,16.62
2023-08-11T06:12:56.489Z,16.69
2023-08-11T06:15:23.964Z,16.76
2023-08-11T06:17:51.542Z,16.83
2023-08-11T06:20:30.230Z,16.93
2023-08-11T06:23:06.714Z,17.03
2023-08-11T06:25:34.214Z,17.13
2023-08-11T06:28:02.763Z,17.23
2023-08-11T06:30:31.458Z,17.35
2023-08-11T06:32:59.284Z,17.47
2023-08-11T06:35:26.997Z,17.61
2023-08-11T06:37:54.658Z,17.72
2023-08-11T06:40:25.713Z,17.86
2023-08-11T06:42:53.585Z,18.00
2023-08-11T06:45:22.849Z,18.17
2023-08-11T06:47:53.708Z,18.30
2023-08-11T06:50:21.634Z,18.46
2023-08-11T06:52:49.424Z,18.64
2023-08-11T06:55:17.218Z,18.83
2023-08-11T06:57:45.102Z,19.01
2023-08-11T07:00:13.236Z,19.17
2023-08-11T07:02:40.931Z,19.35
2023-08-11T07:05:08.746Z,19.54
2023-08-11T07:07:36.505Z,19.72
2023-08-11T07:10:04.681Z,19.90
2023-08-11T07:12:32.420Z,20.09
2023-08-11T07:15:00.025Z,20.31
2023-08-11T07:17:27.579Z,20.51
2023-08-11T07:19:55.349Z,20.73
2023-08-11T07:22:22.910Z,20.93
2023-08-11T07:24:50.405Z,21.12
2023-08-11T07:27:19.560Z,21.32
2023-08-11T07:29:47.395Z,21.55
2023-08-11T07:32:14.917Z,21.77
2023-08-11T07:34:42.543Z,21.98
2023-08-11T07:37:10.904Z,22.16
2023-08-11T07:39:38.695Z,22.34
2023-08-11T07:42:06.447Z,22.54
2023-08-11T07:44:35.085Z,22.77
2023-08-11T07:47:03.842Z,22.99
2023-08-11T07:49:32.774Z,23.16
2023-08-11T07:52:00.662Z,23.33
2023-08-11T07:54:28.471Z,23.49
2023-08-11T07:56:56.116Z,23.65
2023-08-11T07:59:23.665Z,23.80
2023-08-11T08:01:53.402Z,23.91
2023-08-11T08:04:21.252Z,24.02
2023-08-11T08:06:48.756Z,24.17
2023-08-11T08:09:16.383Z,24.30
2023-08-11T08:11:46.413Z,24.44
2023-08-11T08:14:14.744Z,24.61
2023-08-11T08:16:43.267Z,24.77
2023-08-11T08:19:12.327Z,24.95
2023-08-11T08:21:40.457Z,25.10
2023-08-11T08:24:09.260Z,25.26
2023-08-11T08:26:37.341Z,25.42
2023-08-11T08:29:05.246Z,25.51
2023-08-11T08:31:34.134Z,25.55
2023-08-11T08:34:01.752Z,25.67
2023-08-11T08:36:29.520Z,25.78
2023-08-11T08:38:57.038Z,25.84
2023-08-11T08:41:29.514Z,25.92
2023-08-11T08:43:57.754Z,26.00
2023-08-11T08:46:31.645Z,26.11
2023-08-11T08:49:29.911Z,26.26
2023-08-11T08:51:58.380Z,26.43
2023-08-11T08:54:25.963Z,26.55
2023-08-11T08:56:53.582Z,26.65
2023-08-11T08:59:22.923Z,26.77
2023-08-11T09:01:51.370Z,26.86
2023-08-11T09:04:24.471Z,26.96
2023-08-11T09:06:54.420Z,27.04
2023-08-11T09:09:22.375Z,27.14
2023-08-11T09:11:50.420Z,27.22
2023-08-11T09:14:22.147Z,27.28
2023-08-11T09:16:54.901Z,27.39
2023-08-11T09:19:22.550Z,27.47
2023-08-11T09:21:50.080Z,27.57
2023-08-11T09:24:18.283Z,27.65
2023-08-11T09:26:50.596Z,27.75
2023-08-11T09:29:19.479Z,27.82
2023-08-11T09:31:54.523Z,27.90
2023-08-11T09:34:22.688Z,27.98
2023-08-11T09:36:50.602Z,28.11
2023-08-11T09:39:18.429Z,28.19
2023-08-11T09:41:49.932Z,28.28
2023-08-11T09:44:24.878Z,28.31
2023-08-11T09:46:52.866Z,28.33
2023-08-11T09:49:20.441Z,28.47
2023-08-11T09:51:51.194Z,28.61
2023-08-11T09:54:20.082Z,28.72
2023-08-11T09:56:49.691Z,28.76
2023-08-11T09:59:20.903Z,28.78
2023-08-11T10:01:49.962Z,28.81
2023-08-11T10:04:58.102Z,28.88
2023-08-11T10:07:38.257Z,28.89
2023-08-11T10:10:14.881Z,28.97
2023-08-11T10:12:59.845Z,29.06
2023-08-11T10:15:31.257Z,29.18
2023-08-11T10:17:58.827Z,29.27
2023-08-11T10:20:27.386Z,29.33
2023-08-11T10:22:56.081Z,29.33
2023-08-11T10:25:25.595Z,29.43
2023-08-11T10:27:54.760Z,29.34
2023-08-11T10:30:24.428Z,29.32
2023-08-11T10:32:57.981Z,29.31
2023-08-11T10:35:35.829Z,29.35
2023-08-11T10:38:05.282Z,29.46
2023-08-11T10:40:40.810Z,29.50
2023-08-11T10:43:08.345Z,29.49
2023-08-11T10:45:37.527Z,29.45
2023-08-11T10:48:10.695Z,29.45
2023-08-11T10:50:39.550Z,29.48
2023-08-11T10:53:40.154Z,29.54
2023-08-11T10:56:07.688Z,29.57
2023-08-11T10:58:38.707Z,29.54
2023-08-11T11:01:06.315Z,29.61
2023-08-11T11:03:35.061Z,29.69
2023-08-11T11:06:05.776Z,29.81
2023-08-11T11:08:54.040Z,29.93
2023-08-11T11:11:21.608Z,29.99
2023-08-11T11:13:49.444Z,30.04
2023-08-11T11:16:17.075Z,30.07
2023-08-11T11:18:48.609Z,30.09
2023-08-11T11:21:17.995Z,30.12
2023-08-11T11:23:51.277Z,30.17
2023-08-11T11:26:31.462Z,30.22
2023-08-11T11:29:02.608Z,30.29
2023-08-11T11:31:33.977Z,30.34
2023-08-11T11:34:03.914Z,30.33
2023-08-11T11:36:32.428Z,30.37
2023-08-11T11:39:03.731Z,30.45
2023-08-11T11:41:33.068Z,30.55
2023-08-11T11:44:00.983Z,30.62
2023-08-11T11:46:33.640Z,30.71
2023-08-11T11:49:12.676Z,30.77
2023-08-11T11:51:43.705Z,30.81
2023-08-11T11:54:11.270Z,30.85
2023-08-11T11:56:41.930Z,30.88
2023-08-11T11:59:15.111Z,30.92
2023-08-11T12:01:43.573Z,30.95
2023-08-11T12:04:11.970Z,30.96
2023-08-11T12:06:40.067Z,30.96
2023-08-11T12:09:11.685Z,31.00
2023-08-11T12:11:40.313Z,31.06
2023-08-11T12:14:08.732Z,31.11
2023-08-11T12:16:37.223Z,31.12
2023-08-11T12:19:07.398Z,31.10
2023-08-11T12:21:37.278Z,31.11
2023-08-11T12:24:07.644Z,31.14
2023-08-11T12:26:35.148Z,31.19
2023-08-11T12:29:02.638Z,31.26
2023-08-11T12:31:30.107Z,31.34
2023-08-11T12:33:57.644Z,31.38
2023-08-11T12:36:25.328Z,31.43
2023-08-11T12:38:52.876Z,31.42
2023-08-11T12:41:21.217Z,31.38
2023-08-11T12:43:48.805Z,31.35
2023-08-11T12:46:16.468Z,31.34
2023-08-11T12:48:44.191Z,31.35
2023-08-11T12:51:11.808Z,31.29
2023-08-11T12:53:39.341Z,31.23
2023-08-11T12:56:06.999Z,31.18
2023-08-11T12:58:34.504Z,31.17
2023-08-11T13:01:02.046Z,31.17
2023-08-11T13:03:29.662Z,31.16
2023-08-11T13:05:57.205Z,31.18
2023-08-11T13:08:24.656Z,31.18
2023-08-11T13:10:52.219Z,31.15
2023-08-11T13:13:19.761Z,31.15
2023-08-11T13:15:48.736Z,31.22
2023-08-11T13:18:16.368Z,31.26
2023-08-11T13:20:43.876Z,31.33
2023-08-11T13:23:11.375Z,31.37
2023-08-11T13:25:38.845Z,31.42
2023-08-11T13:28:06.517Z,31.48
2023-08-11T13:30:33.979Z,31.55
2023-08-11T13:33:01.508Z,31.55
2023-08-11T13:35:29.049Z,31.45
2023-08-11T13:37:56.584Z,31.36
2023-08-11T13:40:24.895Z,31.31
2023-08-11T13:42:52.548Z,31.37
2023-08-11T13:45:20.046Z,31.42
2023-08-11T13:47:47.666Z,31.50
2023-08-11T13:50:16.148Z,31.43
2023-08-11T13:52:44.830Z,31.33
2023-08-11T13:55:12.444Z,31.33
2023-08-11T13:57:39.963Z,31.26
2023-08-11T14:00:13.005Z,31.23
2023-08-11T14:02:42.095Z,31.15
2023-08-11T14:05:09.825Z,31.06
2023-08-11T14:07:37.360Z,30.97
2023-08-11T14:10:05.310Z,30.89
2023-08-11T14:12:32.775Z,30.80
2023-08-11T14:15:01.396Z,30.72
2023-08-11T14:17:29.005Z,30.65
2023-08-11T14:19:56.458Z,30.61
2023-08-11T14:22:23.962Z,30.60
2023-08-11T14:24:53.414Z,30.61
2023-08-11T14:27:23.617Z,30.61
2023-08-11T14:29:51.264Z,30.61
2023-08-11T14:32:25.448Z,30.60
2023-08-11T14:34:54.187Z,30.56
2023-08-11T14:37:22.316Z,30.52
2023-08-11T14:39:50.267Z,30.49
2023-08-11T14:42:18.432Z,30.44
2023-08-11T14:44:46.004Z,30.41
2023-08-11T14:47:15.487Z,30.37
2023-08-11T14:49:44.985Z,30.34
2023-08-11T14:52:13.875Z,30.31
2023-08-11T14:54:42.220Z,30.28
2023-08-11T14:57:13.768Z,30.31
2023-08-11T14:59:41.278Z,30.32
2023-08-11T15:02:09.623Z,30.37
2023-08-11T15:04:37.712Z,30.40
2023-08-11T15:07:05.337Z,30.45
2023-08-11T15:09:34.295Z,30.55
2023-08-11T15:12:01.816Z,30.62
2023-08-11T15:14:29.362Z,30.71
2023-08-11T15:16:57.955Z,30.77
2023-08-11T15:19:25.510Z,30.77
2023-08-11T15:21:53.044Z,30.75
2023-08-11T15:24:20.710Z,30.76
2023-08-11T15:26:48.159Z,30.78
2023-08-11T15:29:15.642Z,30.81
2023-08-11T15:31:43.132Z,30.84
2023-08-11T15:34:10.601Z,30.82
2023-08-11T15:36:38.035Z,30.80
2023-08-11T15:39:06.103Z,30.74
2023-08-11T15:41:33.885Z,30.68
2023-08-11T15:44:01.866Z,30.63
2023-08-11T15:46:29.619Z,30.58
2023-08-11T15:48:58.805Z,30.51
2023-08-11T15:51:26.310Z,30.42
2023-08-11T15:53:54.111Z,30.31
2023-08-11T15:56:21.624Z,30.20
2023-08-11T15:58:49.170Z,30.15
2023-08-11T16:01:16.677Z,30.21
2023-08-11T16:03:44.292Z,30.28
2023-08-11T16:06:11.866Z,30.31
2023-08-11T16:08:39.735Z,30.32
2023-08-11T16:11:07.827Z,30.32
2023-08-11T16:13:35.322Z,30.30
2023-08-11T16:16:02.868Z,30.28
2023-08-11T16:18:32.505Z,30.28
2023-08-11T16:21:03.933Z,30.28
2023-08-11T16:23:32.945Z,30.25
2023-08-11T16:26:02.089Z,30.18
2023-08-11T16:28:30.837Z,30.12
2023-08-11T16:30:59.158Z,30.08
2023-08-11T16:33:26.734Z,30.10
2023-08-11T16:35:54.220Z,30.11
2023-08-11T16:38:21.710Z,30.17
2023-08-11T16:40:49.294Z,30.17
2023-08-11T16:43:16.801Z,30.09
2023-08-11T16:45:44.343Z,30.00
2023-08-11T16:48:13.160Z,29.89
2023-08-11T16:50:41.209Z,29.76
2023-08-11T16:53:08.836Z,29.62
2023-08-11T16:55:36.392Z,29.48
2023-08-11T16:58:04.137Z,29.36
2023-08-11T17:00:31.758Z,29.24
2023-08-11T17:02:59.354Z,29.06
2023-08-11T17:05:26.975Z,28.87
2023-08-11T17:07:54.524Z,28.72
2023-08-11T17:10:22.062Z,28.60
2023-08-11T17:12:51.763Z,28.41
2023-08-11T17:15:21.465Z,28.20
2023-08-11T17:17:49.431Z,27.95
2023-08-11T17:20:17.053Z,27.74
2023-08-11T17:22:44.972Z,27.50
2023-08-11T17:25:12.853Z,27.31
2023-08-11T17:27:40.384Z,27.12
2023-08-11T17:30:08.759Z,26.96
2023-08-11T17:32:36.492Z,26.77
2023-08-11T17:35:04.466Z,26.61
2023-08-11T17:37:32.279Z,26.44
2023-08-11T17:40:00.748Z,26.28
2023-08-11T17:42:28.256Z,26.16
2023-08-11T17:44:55.754Z,26.03
2023-08-11T17:47:23.278Z,25.92
2023-08-11T17:49:52.637Z,25.80
2023-08-11T17:52:20.193Z,25.69
2023-08-11T17:54:47.782Z,25.59
2023-08-11T17:57:15.243Z,25.48
2023-08-11T17:59:42.805Z,25.37
2023-08-11T18:02:10.744Z,25.28
2023-08-11T18:04:38.636Z,25.19
2023-08-11T18:07:06.132Z,25.10
2023-08-11T18:09:33.592Z,25.04
2023-08-11T18:12:01.101Z,24.98
2023-08-11T18:14:32.707Z,24.93
2023-08-11T18:17:00.675Z,24.86
2023-08-11T18:19:28.202Z,24.83
2023-08-11T18:21:55.761Z,24.81
2023-08-11T18:24:23.321Z,24.77
2023-08-11T18:26:50.850Z,24.75
2023-08-11T18:29:19.212Z,24.72
2023-08-11T18:31:46.885Z,24.67
2023-08-11T18:34:14.345Z,24.63
2023-08-11T18:36:42.257Z,24.60
2023-08-11T18:39:10.318Z,24.56
2023-08-11T18:41:37.833Z,24.55
2023-08-11T18:44:05.799Z,24.52
2023-08-11T18:46:34.974Z,24.48
2023-08-11T18:49:05.518Z,24.43
2023-08-11T18:51:33.207Z,24.39
2023-08-11T18:54:00.700Z,24.36
2023-08-11T18:56:28.249Z,24.34
2023-08-11T18:58:55.724Z,24.30
2023-08-11T19:01:23.827Z,24.26
2023-08-11T19:03:51.430Z,24.21
2023-08-11T19:06:19.206Z,24.16
2023-08-11T19:08:46.713Z,24.09
2023-08-11T19:11:14.734Z,24.04
2023-08-11T19:13:43.778Z,24.02
2023-08-11T19:16:13.148Z,23.97
2023-08-11T19:18:41.002Z,23.97
2023-08-11T19:21:08.853Z,23.93
2023-08-11T19:23:36.378Z,23.88
2023-08-11T19:26:03.898Z,23.82
2023-08-11T19:28:32.656Z,23.77
2023-08-11T19:31:01.035Z,23.73
2023-08-11T19:33:29.132Z,23.69
2023-08-11T19:35:56.677Z,23.67
2023-08-11T19:38:24.261Z,23.63
2023-08-11T19:40:51.750Z,23.60
2023-08-11T19:43:19.203Z,23.57
2023-08-11T19:45:50.322Z,23.55
2023-08-11T19:48:18.128Z,23.53
2023-08-11T19:50:49.449Z,23.50
2023-08-11T19:53:16.880Z,23.43
2023-08-11T19:55:44.800Z,23.40
2023-08-11T19:58:13.526Z,23.38
2023-08-11T20:00:41.977Z,23.36
2023-08-11T20:03:10.699Z,23.36
2023-08-11T20:05:48.053Z,23.34
2023-08-11T20:08:15.637Z,23.29
2023-08-11T20:10:48.433Z,23.26
2023-08-11T20:13:19.458Z,23.22
2023-08-11T20:15:49.695Z,23.19
2023-08-11T20:18:17.694Z,23.15
2023-08-11T20:20:45.530Z,23.13
2023-08-11T20:23:13.170Z,23.11
2023-08-11T20:25:42.947Z,23.11
2023-08-11T20:28:10.469Z,23.09
2023-08-11T20:30:43.788Z,23.09
2023-08-11T20:33:11.500Z,23.08
2023-08-11T20:35:39.117Z,23.08
2023-08-11T20:38:06.640Z,23.06
2023-08-11T20:40:34.815Z,23.06
2023-08-11T20:43:02.493Z,23.04
2023-08-11T20:45:31.455Z,23.02
2023-08-11T20:48:02.525Z,22.99
2023-08-11T20:50:30.305Z,22.91
2023-08-11T20:52:57.867Z,22.88
2023-08-11T20:55:25.295Z,22.90
2023-08-11T20:57:52.853Z,22.89
2023-08-11T21:00:20.402Z,22.90
2023-08-11T21:02:47.852Z,22.90
2023-08-11T21:05:15.501Z,22.91
2023-08-11T21:07:43.187Z,22.89
2023-08-11T21:10:11.500Z,22.88
2023-08-11T21:12:40.202Z,22.87
2023-08-11T21:15:07.937Z,22.89
2023-08-11T21:17:35.499Z,22.87
2023-08-11T21:20:03.121Z,22.85
2023-08-11T21:22:30.673Z,22.84
2023-08-11T21:24:58.248Z,22.83
2023-08-11T21:27:25.884Z,22.80
2023-08-11T21:29:53.548Z,22.78
2023-08-11T21:32:23.562Z,22.75
2023-08-11T21:34:51.556Z,22.72
2023-08-11T21:37:19.039Z,22.69
2023-08-11T21:39:46.556Z,22.65
2023-08-11T21:42:14.104Z,22.63
2023-08-11T21:44:41.630Z,22.60
2023-08-11T21:47:09.596Z,22.57
2023-08-11T21:49:37.431Z,22.56
2023-08-11T21:52:09.066Z,22.53
2023-08-11T21:54:38.807Z,22.50
2023-08-11T21:57:08.734Z,22.47
2023-08-11T21:59:36.932Z,22.46
2023-08-11T22:02:06.841Z,22.43
2023-08-11T22:04:34.455Z,22.42
2023-08-11T22:07:01.972Z,22.40
2023-08-11T22:09:29.504Z,22.38
2023-08-11T22:11:56.952Z,22.38
2023-08-11T22:14:24.467Z,22.36
2023-08-11T22:16:52.345Z,22.34
2023-08-11T22:19:20.073Z,22.32
2023-08-11T22:21:47.507Z,22.31
2023-08-11T22:24:19.110Z,22.28
2023-08-11T22:26:51.936Z,22.25
2023-08-11T22:29:19.414Z,22.22
2023-08-11T22:31:46.942Z,22.21
2023-08-11T22:34:14.445Z,22.19
2023-08-11T22:36:41.975Z,22.18
2023-08-11T22:39:09.567Z,22.15
2023-08-11T22:41:37.120Z,22.12
2023-08-11T22:44:04.984Z,22.08
2023-08-11T22:46:32.520Z,22.05
2023-08-11T22:49:00.043Z,22.05
2023-08-11T22:51:27.549Z,22.04
2023-08-11T22:53:55.157Z,22.00
2023-08-11T22:56:23.041Z,21.98
2023-08-11T22:58:50.585Z,21.93
2023-08-11T23:01:18.098Z,21.89
2023-08-11T23:03:45.645Z,21.86
2023-08-11T23:06:13.400Z,21.83
2023-08-11T23:08:40.972Z,21.82
2023-08-11T23:11:08.519Z,21.82
2023-08-11T23:13:35.988Z,21.80
2023-08-11T23:16:04.135Z,21.81
2023-08-11T23:18:31.733Z,21.80
2023-08-11T23:20:59.338Z,21.77
2023-08-11T23:23:26.895Z,21.74
2023-08-11T23:25:55.716Z,21.72
2023-08-11T23:28:25.220Z,21.68
2023-08-11T23:30:52.876Z,21.65
2023-08-11T23:33:20.593Z,21.60
2023-08-11T23:35:48.328Z,21.55
2023-08-11T23:38:16.299Z,21.53
2023-08-11T23:40:43.915Z,21.50
2023-08-11T23:43:11.458Z,21.50
2023-08-11T23:45:39.074Z,21.47
2023-08-11T23:48:07.881Z,21.45
2023-08-11T23:50:35.635Z,21.41
2023-08-11T23:53:03.252Z,21.39
2023-08-11T23:55:30.967Z,21.37
2023-08-11T23:57:58.502Z,21.35
